Time;durP1;ratioP1;P1;durP2;ratioP2;P2;SDS_P1;SDS_P2;PMS_P1;PMS_P2;Temp;Humidity;BMP_temperature;BMP_pressure;BME280_temperature;BME280_humidity;BME280_pressure;Samples;Min_cycle;Max_cycle;Signal;HPM_P1;HPM_P2
2022/07/22 00:02:16;;;;;;;;;;;;;;;-144.99;95.12;52195.34;5085889;28;19977;-76
2022/07/22 00:04:42;;;;;;;;;;;;;;;-144.99;96.17;52195.34;5087026;28;20022;-73
2022/07/22 00:07:08;;;;;;;;;;;;;;;-144.99;98.04;52217.78;5085636;28;19938;-76
2022/07/22 00:09:35;;;;;;;;;;;;;;;-144.99;97.13;52217.78;5087425;28;20443;-77
2022/07/22 00:12:01;;;;;;;;;;;;;;;-144.99;95.52;52199.44;5090089;28;19996;-76
2022/07/22 00:14:28;;;;;;;;;;;;;;;-144.99;96.05;52195.34;5086318;28;19983;-74
2022/07/22 00:16:55;;;;;;;;;;;;;;;-144.99;96.22;52201.47;5075608;28;19973;-75
2022/07/22 00:19:24;;;;;;;;;;;;;;;-144.99;96.43;52223.88;5081186;28;19928;-75
2022/07/22 00:21:50;;;;;;;;;;;;;;;-144.99;97.34;52223.88;5082898;28;20018;-75
2022/07/22 00:24:17;;;;;;;;;;;;;;;-144.99;96.11;52203.50;5086866;28;19965;-76
2022/07/22 00:26:43;;;;;;;;;;;;;;;-144.99;94.85;52223.88;5081482;28;20359;-76
2022/07/22 00:29:10;;;;;;;;;;;;;;;-144.99;94.68;52191.28;5084323;28;19924;-76
2022/07/22 00:31:36;;;;;;;;;;;;;;;-144.99;98.56;52246.31;5077454;28;20147;-75
2022/07/22 00:34:03;;;;;;;;;;;;;;;-144.99;98.28;52240.19;5087914;28;19932;-76
2022/07/22 00:36:31;;;;;;;;;;;;;;;-144.99;96.00;52217.78;5080606;28;19969;-76
2022/07/22 00:38:58;;;;;;;;;;;;;;;-144.99;95.64;52232.03;5086209;28;19920;-75
2022/07/22 00:41:25;;;;;;;;;;;;;;;-144.99;95.30;52203.50;5086660;28;20397;-75
2022/07/22 00:43:53;;;;;;;;;;;;;;;-144.99;95.22;52219.81;5086528;28;20378;-74
2022/07/22 00:46:19;;;;;;;;;;;;;;;-144.99;95.00;52236.13;5083857;28;19920;-75
2022/07/22 00:48:46;;;;;;;;;;;;;;;-144.99;95.35;52272.81;5081333;28;20455;-72
2022/07/22 00:51:13;;;;;;;;;;;;;;;-144.99;92.33;52215.75;5083231;28;20146;-72
2022/07/22 00:53:41;;;;;;;;;;;;;;;-144.99;93.73;52227.97;5086001;28;19951;-75
2022/07/22 00:56:07;;;;;;;;;;;;;;;-144.99;93.71;52215.75;5082596;28;20007;-73
2022/07/22 00:58:34;;;;;;;;;;;;;;;-144.99;95.25;52246.31;5083762;28;19919;-73
2022/07/22 01:01:00;;;;;;;;;;;;;;;-144.99;95.33;52297.25;5085545;28;20292;-74
2022/07/22 01:03:27;;;;;;;;;;;;;;;-144.99;94.53;52264.66;5086242;28;19926;-73
2022/07/22 01:05:53;;;;;;;;;;;;;;;-144.99;95.16;52232.03;5082099;28;19924;-75
2022/07/22 01:08:20;;;;;;;;;;;;;;;-144.99;95.92;52256.50;5086492;28;19924;-75
2022/07/22 01:10:48;;;;;;;;;;;;;;;-144.99;95.06;52211.66;5084399;28;19920;-75
2022/07/22 01:13:15;;;;;;;;;;;;;;;-144.99;94.60;52240.19;5083623;28;20076;-77
2022/07/22 01:15:41;;;;;;;;;;;;;;;-144.99;91.07;52240.19;5085279;28;19924;-74
2022/07/22 01:18:08;;;;;;;;;;;;;;;-144.99;89.10;52244.28;5082346;28;20099;-76
2022/07/22 01:20:36;;;;;;;;;;;;;;;-144.99;87.45;52236.13;5080051;28;19931;-76
2022/07/22 01:23:03;;;;;;;;;;;;;;;-144.99;86.81;52211.66;5084257;28;19934;-76
2022/07/22 01:25:29;;;;;;;;;;;;;;;-144.99;87.23;52248.34;5082613;28;19979;-75
2022/07/22 01:27:58;;;;;;;;;;;;;;;-144.99;87.97;52203.50;5086796;28;20004;-74
2022/07/22 01:30:24;;;;;;;;;;;;;;;-144.99;87.81;52215.75;5084773;28;19946;-75
2022/07/22 01:32:51;;;;;;;;;;;;;;;-144.99;88.95;52199.44;5082770;28;19963;-74
2022/07/22 01:35:17;;;;;;;;;;;;;;;-144.99;89.98;52262.63;5087387;28;19919;-73
2022/07/22 01:37:45;;;;;;;;;;;;;;;-144.99;89.95;52219.81;5083644;28;20001;-75
2022/07/22 01:40:12;;;;;;;;;;;;;;;-144.99;92.29;52232.03;5086540;28;19978;-75
2022/07/22 01:42:39;;;;;;;;;;;;;;;-144.99;94.36;52211.66;5085611;28;19924;-75
2022/07/22 01:45:06;;;;;;;;;;;;;;;-144.99;94.59;52236.13;5080897;28;20302;-76
2022/07/22 01:47:33;;;;;;;;;;;;;;;-144.99;95.20;52203.50;5086380;28;19920;-76
2022/07/22 01:49:59;;;;;;;;;;;;;;;-144.99;94.81;52248.34;5085368;28;20286;-75
2022/07/22 01:52:26;;;;;;;;;;;;;;;-144.99;95.63;52297.25;5096361;28;19920;-75
2022/07/22 01:54:54;;;;;;;;;;;;;;;-144.99;96.89;52285.03;5093552;28;20052;-74
2022/07/22 01:57:20;;;;;;;;;;;;;;;-144.99;96.02;52242.22;5085150;28;19920;-75
2022/07/22 01:59:47;;;;;;;;;;;;;;;-144.99;96.14;52227.97;5086692;28;19920;-75
2022/07/22 02:02:13;;;;;;;;;;;;;;;-144.99;96.53;52232.03;5085123;28;19920;-76
2022/07/22 02:04:40;;;;;;;;;;;;;;;-144.99;96.36;52270.78;5079768;28;20359;-75
2022/07/22 02:07:06;;;;;;;;;;;;;;;-144.99;96.03;52211.66;5089407;28;19924;-76
2022/07/22 02:09:33;;;;;;;;;;;;;;;-144.99;94.21;52244.28;5088766;28;19920;-76
2022/07/22 02:12:00;;;;;;;;;;;;;;;-144.99;95.24;52234.09;5089158;28;19920;-76
2022/07/22 02:14:27;;;;;;;;;;;;;;;-144.99;94.97;52240.19;5087231;28;19941;-76
2022/07/22 02:16:53;;;;;;;;;;;;;;;-144.99;91.91;52225.94;5084693;28;20000;-75
2022/07/22 02:19:20;;;;;;;;;;;;;;;-144.99;93.66;52252.44;5087234;28;20051;-76
2022/07/22 02:21:46;;;;;;;;;;;;;;;-144.99;95.16;52236.13;5081225;28;19920;-76
2022/07/22 02:24:13;;;;;;;;;;;;;;;-144.99;95.28;52207.59;5085165;28;19927;-76
2022/07/22 02:26:40;;;;;;;;;;;;;;;-144.99;96.16;52227.97;5089750;28;20068;-76
2022/07/22 02:29:08;;;;;;;;;;;;;;;-144.99;96.02;52221.84;5089217;28;19992;-76
2022/07/22 02:31:34;;;;;;;;;;;;;;;-144.99;95.63;52240.19;5089654;28;19965;-74
2022/07/22 02:34:00;;;;;;;;;;;;;;;-144.99;95.58;52238.16;5088853;28;19920;-76
2022/07/22 02:36:27;;;;;;;;;;;;;;;-144.99;95.41;52280.97;5086480;28;20450;-76
2022/07/22 02:38:53;;;;;;;;;;;;;;;-144.99;93.87;52211.66;5088950;28;19985;-76
2022/07/22 02:41:20;;;;;;;;;;;;;;;-144.99;95.41;52236.13;5115284;22;20186;-75
2022/07/22 02:43:46;;;;;;;;;;;;;;;-144.99;94.97;52240.19;5084997;28;19923;-76
2022/07/22 02:46:14;;;;;;;;;;;;;;;-144.99;93.91;52223.88;5089448;28;19951;-76
2022/07/22 02:48:41;;;;;;;;;;;;;;;-144.99;94.05;52223.88;5088934;28;20375;-77
2022/07/22 02:51:07;;;;;;;;;;;;;;;-144.99;94.17;52264.66;5088246;28;20202;-76
2022/07/22 02:53:34;;;;;;;;;;;;;;;-144.99;94.47;52219.81;5084773;28;19965;-76
2022/07/22 02:56:00;;;;;;;;;;;;;;;-144.99;94.80;52256.50;5089423;28;19924;-76
2022/07/22 02:58:27;;;;;;;;;;;;;;;-144.99;95.70;52252.44;5083030;28;19955;-76
2022/07/22 03:00:53;;;;;;;;;;;;;;;-144.99;96.29;52227.97;5080031;28;19928;-76
2022/07/22 03:03:21;;;;;;;;;;;;;;;-144.99;95.90;52260.56;5090262;28;19924;-77
2022/07/22 03:05:48;;;;;;;;;;;;;;;-144.99;95.82;52278.91;5088506;28;19920;-75
2022/07/22 03:08:14;;;;;;;;;;;;;;;-144.99;93.59;52203.50;5088087;28;19924;-77
2022/07/22 03:10:41;;;;;;;;;;;;;;;-144.99;92.24;52232.03;5091773;28;20819;-77
2022/07/22 03:13:07;;;;;;;;;;;;;;;-144.99;94.57;52240.19;5090226;28;19941;-76
2022/07/22 03:15:33;;;;;;;;;;;;;;;-144.99;96.58;52252.44;5088905;28;19981;-77
2022/07/22 03:18:00;;;;;;;;;;;;;;;-144.99;97.55;52252.44;5083850;28;20375;-77
2022/07/22 03:20:28;;;;;;;;;;;;;;;-144.99;97.99;52246.31;5085683;28;19923;-76
2022/07/22 03:22:55;;;;;;;;;;;;;;;-144.99;96.43;52230.00;5089162;28;19962;-76
2022/07/22 03:25:21;;;;;;;;;;;;;;;-144.99;96.79;52248.34;5083443;28;20421;-75
2022/07/22 03:27:47;;;;;;;;;;;;;;;-144.99;97.22;52248.34;5086215;28;19920;-75
2022/07/22 03:30:14;;;;;;;;;;;;;;;-144.99;96.98;52215.75;5090717;28;20383;-75
2022/07/22 03:32:44;;;;;;;;;;;;;;;-144.99;97.20;52236.13;5101368;28;19981;-74
2022/07/22 03:35:11;;;;;;;;;;;;;;;-144.99;96.08;52256.50;5089081;28;19989;-77
2022/07/22 03:37:39;;;;;;;;;;;;;;;-144.99;96.29;52248.34;5084667;28;19924;-77
2022/07/22 03:40:06;;;;;;;;;;;;;;;-144.99;97.06;52264.66;5090872;28;20337;-76
2022/07/22 03:42:32;;;;;;;;;;;;;;;-144.99;97.76;52215.75;5090443;28;20333;-77
2022/07/22 03:44:59;;;;;;;;;;;;;;;-144.99;98.94;52264.66;5090318;28;19935;-76
2022/07/22 03:47:26;;;;;;;;;;;;;;;-144.99;98.79;52254.47;5090187;28;19955;-73
2022/07/22 03:49:53;;;;;;;;;;;;;;;-144.99;99.28;52252.44;5088231;28;20336;-73
2022/07/22 03:52:19;;;;;;;;;;;;;;;-144.99;100.00;52293.19;5085865;28;19923;-74
2022/07/22 03:54:47;;;;;;;;;;;;;;;-144.99;100.00;52252.44;5088727;28;19924;-76
2022/07/22 03:57:14;;;;;;;;;;;;;;;-144.99;100.00;52260.56;5087569;28;19936;-75
2022/07/22 03:59:40;;;;;;;;;;;;;;;-144.99;100.00;52242.22;5082794;28;19955;-74
2022/07/22 04:02:07;;;;;;;;;;;;;;;-144.99;100.00;52227.97;5086302;28;19928;-74
2022/07/22 04:04:33;;;;;;;;;;;;;;;-144.99;100.00;52252.44;5089040;28;19987;-75
2022/07/22 04:07:00;;;;;;;;;;;;;;;-144.99;100.00;52260.56;5081403;28;19928;-74
2022/07/22 04:09:26;;;;;;;;;;;;;;;-144.99;100.00;52225.94;5088856;28;20003;-74
2022/07/22 04:11:54;;;;;;;;;;;;;;;-144.99;100.00;52260.56;5086068;28;19920;-73
2022/07/22 04:14:20;;;;;;;;;;;;;;;-144.99;100.00;52211.66;5086939;28;20374;-74
2022/07/22 04:16:47;;;;;;;;;;;;;;;-144.99;100.00;52240.19;5093945;28;19975;-74
2022/07/22 04:19:13;;;;;;;;;;;;;;;-144.99;100.00;52276.88;5096371;28;19924;-76
2022/07/22 04:21:40;;;;;;;;;;;;;;;-144.99;98.43;52211.66;5090754;28;19935;-77
2022/07/22 04:24:07;;;;;;;;;;;;;;;-144.99;99.71;52238.16;5090266;28;20278;-75
2022/07/22 04:26:34;;;;;;;;;;;;;;;-144.99;100.00;52238.16;5087095;28;19920;-77
2022/07/22 04:29:01;;;;;;;;;;;;;;;-144.99;99.79;52276.88;5080516;28;19920;-76
2022/07/22 04:31:28;;;;;;;;;;;;;;;-144.99;97.98;52232.03;5086019;28;19920;-75
2022/07/22 04:33:54;;;;;;;;;;;;;;;-144.99;100.00;52264.66;5091686;28;19924;-78
2022/07/22 04:36:21;;;;;;;;;;;;;;;-144.99;100.00;52278.91;5096624;28;19965;-78
2022/07/22 04:38:48;;;;;;;;;;;;;;;-144.99;99.13;52211.66;5089630;28;19958;-78
2022/07/22 04:41:14;;;;;;;;;;;;;;;-144.99;95.63;52227.97;5091387;28;19920;-75
2022/07/22 04:43:41;;;;;;;;;;;;;;;-144.99;94.82;52252.44;5089477;28;19986;-78
2022/07/22 04:46:09;;;;;;;;;;;;;;;-144.99;96.95;52248.34;5087702;28;19948;-79
2022/07/22 04:48:35;;;;;;;;;;;;;;;-144.99;97.86;52248.34;5088265;28;19927;-76
2022/07/22 04:51:15;;;;;;;;;;;;;;;-144.99;0.00;61100.13;5088858;28;20402;-76
2022/07/22 04:53:45;;;;;;;;;;;;;;;-144.99;100.00;61100.13;5087470;28;19924;-68
2022/07/22 04:56:11;;;;;;;;;;;;;;;-144.99;97.86;52248.34;5091627;28;19935;-69
2022/07/22 04:58:49;;;;;;;;;;;;;;;-144.99;100.00;61100.13;5084305;28;19973;-70
2022/07/22 05:01:17;;;;;;;;;;;;;;;-144.99;100.00;61100.13;5086474;28;20309;-69
2022/07/22 05:03:43;;;;;;;;;;;;;;;-144.99;100.00;61100.13;5086855;28;19935;-70
2022/07/22 05:06:10;;;;;;;;;;;;;;;-144.99;100.00;61100.13;4379039;28;10000742;-70
2022/07/22 05:08:37;;;;;;;;;;;;;;;-144.99;100.00;61100.13;5081852;28;19924;-70
2022/07/22 05:11:03;;;;;;;;;;;;;;;-144.99;94.92;52232.03;5083392;28;20379;-73
2022/07/22 05:13:30;;;;;;;;;;;;;;;-144.99;93.84;52215.75;5084300;28;19930;-77
2022/07/22 05:15:56;;;;;;;;;;;;;;;-144.99;93.84;52215.75;5078508;28;20437;-76
2022/07/22 05:18:24;;;;;;;;;;;;;;;-144.99;100.00;61100.13;5084023;28;20345;-75
2022/07/22 05:20:51;;;;;;;;;;;;;;;-144.99;100.00;61100.13;5081557;28;19924;-75
2022/07/22 05:23:17;;;;;;;;;;;;;;;-144.99;100.00;61100.13;5083830;28;19928;-75
2022/07/22 05:25:44;;;;;;;;;;;;;;;-144.99;94.63;52256.50;5092301;28;20448;-75
2022/07/22 05:28:11;;;;;;;;;;;;;;;-144.99;100.00;61100.13;5084341;28;19986;-75
2022/07/22 05:30:37;;;;;;;31.08;29.35;;;;;;;-144.99;100.00;61100.13;5084924;28;19963;-75
2022/07/22 05:33:04;;;;;;;;;;;;;;;-144.99;100.00;61100.13;5081073;28;20618;-75
2022/07/22 05:35:32;;;;;;;;;;;;;;;-144.99;97.74;52256.50;5083049;28;20472;-77
2022/07/22 05:37:58;;;;;;;;;;;;;;;-144.99;100.00;61100.13;5082954;28;19924;-75
2022/07/22 05:40:48;;;;;;;;;;;;;;;-144.99;100.00;61100.13;5083339;28;20039;-76
2022/07/22 05:43:15;;;;;;;;;;;;;;;-144.99;100.00;61100.13;5086055;28;20317;-76
2022/07/22 05:45:42;;;;;;;;;;;;;;;-144.99;100.00;61100.13;5092192;28;20047;-73
2022/07/22 05:48:08;;;;;;;;;;;;;;;-144.99;100.00;61100.13;5089349;28;19924;-77
2022/07/22 05:50:36;;;;;;;;;;;;;;;-144.99;100.00;61100.13;5080442;28;19931;-77
2022/07/22 05:53:03;;;;;;;;;;;;;;;-144.99;98.98;52223.88;5086842;28;19957;-74
2022/07/22 05:55:29;;;;;;;;;;;;;;;-144.99;100.00;61100.13;5090031;28;19924;-73
2022/07/22 05:57:56;;;;;;;;;;;;;;;-144.99;100.00;61100.13;5087595;28;19924;-76
2022/07/22 06:00:23;;;;;;;;;;;;;;;-144.99;100.00;61100.13;5087642;28;19927;-76
2022/07/22 06:02:49;;;;;;;;;;;;;;;-144.99;100.00;61100.13;5087528;28;20444;-75
2022/07/22 06:05:16;;;;;;;;;;;;;;;-144.99;100.00;61100.13;5086175;28;19924;-75
2022/07/22 06:07:44;;;;;;;;;;;;;;;-144.99;100.00;61100.13;5087118;28;20478;-75
2022/07/22 06:10:10;;;;;;;;;;;;;;;-144.99;96.56;52215.75;5091055;28;19986;-75
2022/07/22 06:12:37;;;;;;;;;;;;;;;-144.99;100.00;61100.13;5087897;28;20352;-75
2022/07/22 06:15:04;;;;;;;;;;;;;;;-144.99;100.00;61100.13;5087800;28;20302;-75
2022/07/22 06:17:31;;;;;;;;;;;;;;;-144.99;100.00;61100.13;5087147;28;20478;-75
2022/07/22 06:19:57;;;;;;;;;;;;;;;-144.99;100.00;61100.13;5085212;28;19970;-75
2022/07/22 06:22:23;;;;;;;;;;;;;;;-144.99;100.00;61100.13;5086270;28;20442;-75
2022/07/22 06:24:52;;;;;;;;;;;;;;;-144.99;100.00;61100.13;5087152;28;19923;-75
2022/07/22 06:27:18;;;;;;;;;;;;;;;-144.99;94.62;52264.66;5087498;28;19924;-75
2022/07/22 06:29:45;;;;;;;;;;;;;;;-144.99;100.00;61100.13;5081181;28;20017;-76
2022/07/22 06:32:11;;;;;;;;;;;;;;;-144.99;100.00;61100.13;5087226;28;20020;-76
2022/07/22 06:34:37;;;;;;;;;;;;;;;-144.99;100.00;61100.13;5087563;28;19993;-76
2022/07/22 06:37:04;;;;;;;;;;;;;;;-144.99;100.00;61100.13;5088861;28;19991;-74
2022/07/22 06:39:30;;;;;;;;;;;;;;;-144.99;100.00;61100.13;5087956;28;20005;-74
2022/07/22 06:41:58;;;;;;;;;;;;;;;-144.99;100.00;61100.13;5085715;28;20431;-73
2022/07/22 06:44:25;;;;;;;;;;;;;;;-144.99;100.00;61100.13;5086755;28;19966;-76
2022/07/22 06:46:51;;;;;;;;;;;;;;;-144.99;100.00;61100.13;5083985;28;20020;-74
2022/07/22 06:49:18;;;;;;;;;;;;;;;-144.99;100.00;61100.13;5084333;28;19992;-75
2022/07/22 06:51:44;;;;;;;;;;;;;;;-144.99;100.00;61100.13;5079397;28;20064;-73
2022/07/22 06:54:11;;;;;;;;;;;;;;;-144.99;100.00;61100.13;5091522;28;19935;-74
2022/07/22 06:56:38;;;;;;;;;;;;;;;-144.99;100.00;61100.13;4733404;28;9999849;-73
2022/07/22 06:59:06;;;;;;;;;;;;;;;-144.99;100.00;61100.13;5086950;28;20024;-74
2022/07/22 07:01:32;;;;;;;;;;;;;;;-144.99;100.00;61100.13;5086055;28;19930;-75
2022/07/22 07:03:59;;;;;;;;;;;;;;;-144.99;100.00;61100.13;5083870;28;19924;-73
2022/07/22 07:06:25;;;;;;;;;;;;;;;-144.99;100.00;61100.13;5079896;28;20286;-76
2022/07/22 07:08:52;;;;;;;;;;;;;;;-144.99;100.00;61100.13;5087963;28;20345;-77
2022/07/22 07:11:18;;;;;;;;;;;;;;;-144.99;100.00;61100.13;5095651;28;19928;-71
2022/07/22 07:13:45;;;;;;;;;;;;;;;-144.99;100.00;61100.13;5081806;28;20379;-76
2022/07/22 07:16:13;;;;;;;;;;;;;;;-144.99;100.00;61100.13;5080967;28;20184;-74
2022/07/22 07:18:40;;;;;;;;;;;;;;;-144.99;100.00;61100.13;5092513;28;19959;-76
2022/07/22 07:21:06;;;;;;;;;;;;;;;-144.99;100.00;61100.13;5096440;28;19931;-75
2022/07/22 07:23:33;;;;;;;;;;;;;;;-144.99;100.00;61100.13;5099428;28;19920;-75
2022/07/22 07:25:59;;;;;;;;;;;;;;;-144.99;100.00;61100.13;5090979;28;19924;-75
2022/07/22 07:28:26;;;;;;;;;;;;;;;-144.99;88.11;52248.34;5084959;28;19946;-75
2022/07/22 07:30:52;;;;;;;;;;;;;;;-144.99;100.00;61100.13;5088565;28;19927;-75
2022/07/22 07:33:20;;;;;;;;;;;;;;;-144.99;100.00;61100.13;5082198;28;19920;-74
2022/07/22 07:35:47;;;;;;;;;;;;;;;-144.99;88.58;52199.44;5083660;28;19928;-75
2022/07/22 07:38:14;;;;;;;;;;;;;;;-144.99;88.07;52232.03;5083806;28;19956;-75
2022/07/22 07:40:40;;;;;;;;;;;;;;;-144.99;85.95;52240.19;5089472;28;19945;-76
2022/07/22 07:43:07;;;;;;;;;;;;;;;-144.99;100.00;61100.13;5088172;28;20279;-75
2022/07/22 07:45:36;;;;;;;;;;;;;;;-144.99;83.45;52209.63;5084850;28;19963;-76
2022/07/22 07:48:03;;;;;;;;;;;;;;;-144.99;100.00;61100.13;5085676;28;19981;-75
2022/07/22 07:50:31;;;;;;;;;;;;;;;-144.99;100.00;61100.13;5083525;28;19930;-75
2022/07/22 07:52:58;;;;;;;;;;;;;;;-144.99;100.00;61100.13;5084612;28;19924;-75
2022/07/22 07:55:25;;;;;;;;;;;;;;;-144.99;72.08;52256.50;5077065;28;19924;-75
2022/07/22 07:57:51;;;;;;;;;;;;;;;-144.99;100.00;61100.13;5087129;28;19924;-76
2022/07/22 08:00:21;;;;;;;;;;;;;;;-144.99;71.26;52203.50;5087559;28;20406;-74
2022/07/22 08:02:47;;;;;;;;;;;;;;;-144.99;69.18;52187.19;5086342;28;19924;-73
2022/07/22 08:05:14;;;;;;;;;;;;;;;-144.99;68.23;52195.34;5086480;28;20059;-73
2022/07/22 08:07:42;;;;;;;;;;;;;;;-144.99;67.46;52223.88;5091260;28;19924;-72
2022/07/22 08:10:09;;;;;;;;;;;;;;;-144.99;68.81;52262.63;5085432;28;19978;-71
2022/07/22 08:12:36;;;;;;;;;;;;;;;-144.99;100.00;61100.13;5079402;28;19947;-75
2022/07/22 08:15:03;;;;;;;;;;;;;;;-144.99;72.51;52236.13;5086390;28;19927;-74
2022/07/22 08:17:29;;;;;;;;;;;;;;;-144.99;100.00;61100.13;5082764;28;20301;-74
2022/07/22 08:19:56;;;;;;;;;;;;;;;-144.99;74.75;52256.50;5077868;28;20357;-74
2022/07/22 08:22:22;;;;;;;;;;;;;;;-144.99;100.00;61100.13;5084334;28;19963;-76
2022/07/22 08:24:50;;;;;;;;;;;;;;;-144.99;75.60;52219.81;5084519;28;19928;-76
2022/07/22 08:27:17;;;;;;;;;;;;;;;-144.99;75.18;52244.28;5083409;28;19928;-73
2022/07/22 08:29:43;;;;;;;;;;;;;;;-144.99;75.33;52215.75;5083091;28;19966;-74
2022/07/22 08:32:10;;;;;;;;;;;;;;;-144.99;75.06;52236.13;5082336;28;20012;-73
2022/07/22 08:34:37;;;;;;;;;;;;;;;-144.99;73.29;52223.88;5090626;28;19904;-75
2022/07/22 08:37:03;;;;;;;;;;;;;;;-144.99;72.33;52211.66;5085356;28;19958;-75
2022/07/22 08:39:30;;;;;;;;;;;;;;;-144.99;70.61;52215.75;5085538;28;19932;-73
2022/07/22 08:41:58;;;;;;;;;;;;;;;-144.99;69.39;52215.75;5106907;22;20007;-71
2022/07/22 08:44:24;;;;;;;;;;;;;;;-144.99;68.66;52227.97;5041824;28;19925;-74
2022/07/22 08:46:51;;;;;;;;;;;;;;;-144.99;69.45;52195.34;5041988;28;20008;-73
2022/07/22 08:49:17;;;;;;;;;;;;;;;-144.99;67.84;52260.56;5045292;28;20007;-73
2022/07/22 08:51:44;;;;;;;;;;;;;;;-144.99;100.00;61100.13;5031382;28;20446;-73
2022/07/22 08:54:10;;;;;;;;;;;;;;;-144.99;67.87;52207.59;5042348;28;20445;-73
2022/07/22 08:56:37;;;;;;;;;;;;;;;-144.99;67.38;52177.00;5039570;28;19932;-73
2022/07/22 08:59:06;;;;;;;;;;;;;;;-144.99;100.00;61100.13;5041539;28;19939;-73
2022/07/22 09:01:33;;;;;;;;;;;;;;;-144.99;68.18;52215.75;5039229;28;20400;-74
2022/07/22 09:03:59;;;;;;;;;;;;;;;-144.99;65.52;52193.31;5042413;28;20019;-72
2022/07/22 09:06:30;;;;;;;;;;;;;;;-144.99;65.27;52221.84;5041344;28;19964;-71
2022/07/22 09:08:59;;;;;;;;;;;;;;;-144.99;64.95;52146.44;5042759;28;20290;-72
2022/07/22 09:11:26;;;;;;;;;;;;;;;-144.99;63.99;52197.41;5039279;28;19925;-72
2022/07/22 09:13:53;;;;;;;;;;;;;;;-144.99;63.32;52199.44;5036157;28;19929;-72
2022/07/22 09:16:34;;;;;;;;;;;;;;;-144.99;63.47;52179.06;5048922;28;19986;-74
2022/07/22 09:19:02;;;;;;;;;;;;;;;-144.99;61.73;52187.19;5048746;28;20471;-74
2022/07/22 09:21:30;;;;;;;;;;;;;;;-144.99;62.65;52219.81;5049972;28;19925;-71
2022/07/22 09:23:56;;;;;;;;;;;;;;;-144.99;61.67;52187.19;5049402;28;19924;-74
2022/07/22 09:26:32;;;;;;;;;;;;;;;-144.99;62.18;52195.34;5049104;28;19936;-73
2022/07/22 09:28:59;;;;;;;;;;;;;;;-144.99;61.56;52191.28;5049380;28;20011;-74
2022/07/22 09:31:26;;;;;;;;;;;;;;;-144.99;100.00;61100.13;5046625;28;19960;-74
2022/07/22 09:33:53;;;;;;;;;;;;;;;-144.99;60.98;52174.97;5041994;28;20167;-72
2022/07/22 09:36:22;;;;;;;;;;;;;;;-144.99;60.95;52195.34;5047223;28;20593;-73
2022/07/22 09:38:48;;;;;;;;;;;;;;;-144.99;60.66;52207.59;5049246;28;19952;-73
2022/07/22 09:41:15;;;;;;;;;;;;;;;-144.99;61.51;52203.50;5055285;28;19991;-72
2022/07/22 09:43:42;;;;;;;;;;;;;;;-144.99;62.29;52166.81;5045893;28;19933;-73
2022/07/22 09:46:09;;;;;;;;;;;;;;;-144.99;60.22;52187.19;5045295;28;19978;-73
2022/07/22 09:48:36;;;;;;;;;;;;;;;-144.99;59.82;52211.66;5048596;28;20400;-73
2022/07/22 09:51:03;;;;;;;;;;;;;;;-144.99;59.28;52203.50;5050408;28;19928;-70
2022/07/22 09:53:31;;;;;;;;;;;;;;;-144.99;57.94;52172.94;5043394;28;20474;-73
2022/07/22 09:55:58;;;;;;;;;;;;;;;-144.99;57.66;52187.19;5045074;28;19964;-72
2022/07/22 09:58:25;;;;;;;;;;;;;;;-144.99;57.54;52195.34;5049297;28;19928;-73
2022/07/22 10:00:52;;;;;;;;;;;;;;;-144.99;56.52;52138.28;5047749;28;19990;-74
2022/07/22 10:03:22;;;;;;;;;;;;;;;-144.99;56.49;52156.63;5045375;28;20016;-72
2022/07/22 10:05:49;;;;;;;;;;;;;;;-144.99;55.48;52191.28;5044695;28;19967;-73
2022/07/22 10:08:16;;;;;;;;;;;;;;;-144.99;55.32;52185.16;5048582;28;19924;-72
2022/07/22 10:10:43;;;;;;;;;;;;;;;-144.99;55.29;52187.19;5055818;28;20003;-74
2022/07/22 10:13:11;;;;;;;;;;;;;;;-144.99;54.93;52203.50;5050868;28;19928;-73
2022/07/22 10:15:38;;;;;;;;;;;;;;;-144.99;53.37;52177.00;5052190;28;19951;-74
2022/07/22 10:18:06;;;;;;;;;;;;;;;-144.99;53.02;52219.81;5049360;28;20133;-71
2022/07/22 10:20:33;;;;;;;;;;;;;;;-144.99;53.42;52199.44;5047155;28;19928;-74
2022/07/22 10:23:00;;;;;;;;;;;;;;;-144.99;51.99;52199.44;5048840;28;19924;-72
2022/07/22 10:25:28;;;;;;;;;;;;;;;-144.99;51.72;52179.06;5048305;28;20106;-74
2022/07/22 10:27:57;;;;;;;;;;;;;;;-144.99;52.64;52254.47;5053138;28;19971;-74
2022/07/22 10:30:25;;;;;;;;;;;;;;;-144.99;53.34;52211.66;5041529;28;19956;-73
2022/07/22 10:33:05;;;;;;;;;;;;;;;-144.99;53.40;52183.13;5044039;28;19924;-72
2022/07/22 10:35:31;;;;;;;;;;;;;;;-144.99;52.75;52195.34;5043269;28;20358;-72
2022/07/22 10:38:00;;;;;;;;;;;;;;;-144.99;53.40;52203.50;5045459;28;19929;-72
2022/07/22 10:40:28;;;;;;;;;;;;;;;-144.99;51.97;52170.91;5048571;28;19935;-73
2022/07/22 10:43:09;;;;;;;;;;;;;;;-144.99;52.30;52156.63;5044092;28;20371;-70
2022/07/22 10:45:37;;;;;;;;;;;;;;;-144.99;52.66;52191.28;5042015;28;19928;-73
2022/07/22 10:48:07;;;;;;;;;;;;;;;-144.99;53.61;52240.19;5050244;28;20012;-72
2022/07/22 10:50:56;;;;;;;;;;;;;;;-144.99;53.42;52183.13;5043532;28;20473;-74
2022/07/22 10:53:23;;;;;;;;;;;;;;;-144.99;53.67;52154.59;5044411;28;19947;-73
2022/07/22 10:56:13;;;;;;;;;;;;;;;-144.99;53.67;52236.13;5044774;28;20273;-70
2022/07/22 10:58:42;;;;;;;;;;;;;;;-144.99;53.12;52195.34;5048298;28;20261;-70
2022/07/22 11:01:10;;;;;;;;;;;;;;;-144.99;53.54;52183.13;5045750;28;19978;-72
2022/07/22 11:03:38;;;;;;;;;;;;;;;-144.99;52.59;52170.91;5044564;28;19940;-70
2022/07/22 11:06:15;;;;;;;;;;;;;;;-144.99;51.46;52193.31;5043941;28;20111;-70
2022/07/22 11:08:41;;;;;;;;;;;;;;;-144.99;51.29;52203.50;5044243;28;20027;-72
2022/07/22 11:11:08;;;;;;;;;;;;;;;-144.99;51.63;52170.91;5048255;28;19924;-71
2022/07/22 11:13:36;;;;;;;;;;;;;;;-144.99;50.90;52179.06;5039473;28;20019;-72
2022/07/22 11:16:16;;;;;;;;;;;;;;;-144.99;49.83;52191.28;5043659;28;19963;-71
2022/07/22 11:18:50;;;;;;;;;;;;;;;-144.99;49.91;52138.28;5044640;28;19931;-74
2022/07/22 11:21:17;;;;;;;;;;;;;;;-144.99;49.47;52142.38;5041411;28;20452;-72
2022/07/22 11:23:45;;;;;;;;;;;;;;;-144.99;48.87;52193.31;5041937;28;19971;-73
2022/07/22 11:26:14;;;;;;;;;;;;;;;-144.99;48.13;52199.44;5043882;28;19928;-72
2022/07/22 11:28:40;;;;;;;;;;;;;;;-144.99;48.48;52219.81;5044601;28;19975;-73
2022/07/22 11:31:07;;;;;;;;;;;;;;;-144.99;48.09;52207.59;5048518;28;19928;-70
2022/07/22 11:33:35;;;;;;;;;;;;;;;-144.99;49.20;52207.59;5041545;28;19970;-73
2022/07/22 11:36:02;;;;;;;;;;;;;;;-144.99;49.06;52211.66;5045425;28;20015;-72
2022/07/22 11:38:40;;;;;;;;;;;;;;;-144.99;48.18;52174.97;5044440;28;19990;-72
2022/07/22 11:41:06;;;;;;;;;;;;;;;-144.99;47.62;52179.06;5040637;28;20489;-73
2022/07/22 11:43:38;;;;;;;;;;;;;;;-144.99;46.65;52168.84;5037487;28;19925;-72
2022/07/22 11:46:05;;;;;;;;;;;;;;;-144.99;46.40;52174.97;5041019;28;20024;-72
2022/07/22 11:48:31;;;;;;;;;;;;;;;-144.99;45.42;52128.09;5037105;28;19930;-71
2022/07/22 11:51:01;;;;;;;;;;;;;;;-144.99;46.48;52162.75;5042826;28;19939;-75
2022/07/22 11:53:28;;;;;;;;;;;;;;;-144.99;45.88;52197.41;5033307;28;20009;-75
2022/07/22 11:55:57;;;;;;;;;;;;;;;-144.99;46.36;52187.19;5048126;28;19924;-74
2022/07/22 11:58:34;;;;;;;;;;;;;;;-144.99;46.39;52187.19;5044055;28;19978;-73
2022/07/22 12:01:00;;;;;;;;;;;;;;;-144.99;46.48;52199.44;5041242;28;20023;-72
2022/07/22 12:03:27;;;;;;;;;;;;;;;-144.99;47.15;52174.97;5043250;28;20047;-74
2022/07/22 12:05:53;;;;;;;;;;;;;;;-144.99;45.92;52166.81;5041159;28;19928;-73
2022/07/22 12:08:21;;;;;;;;;;;;;;;-144.99;46.56;52191.28;5043169;28;20019;-74
2022/07/22 12:10:48;;;;;;;;;;;;;;;-144.99;46.28;52124.03;5044162;28;19951;-74
2022/07/22 12:13:15;;;;;;;;;;;;;;;-144.99;45.38;52162.75;5044101;28;19921;-74
2022/07/22 12:15:41;;;;;;;;;;;;;;;-144.99;45.54;52148.47;5046361;28;19924;-71
2022/07/22 12:18:19;;;;;;;;;;;;;;;-144.99;44.86;52166.81;5047998;28;19933;-71
2022/07/22 12:20:46;;;;;;;;;;;;;;;-144.99;44.61;52166.81;5041701;28;19925;-75
2022/07/22 12:23:12;;;;;;;;;;;;;;;-144.99;44.45;52154.59;5043352;28;20410;-73
2022/07/22 12:25:57;;;;;;;;;;;;;;;-144.99;44.56;52121.97;5046809;28;19928;-75